Accueil
METAR-TAF:

METAR-TAF

Aéroports :

Aéroport de Perpignan-Rivesaltes

Perpignan, France

latitude: 42-44N, longitude: 002-52E, altitude: 43 m

Observation

Le bulletin a été fait il y a 35 minutes, à 18:30 UTC
Vent 11 kt de ouest/nord-ouest, variant entre ouest et nord/nord-ouest
Température 24°C
Humidité 44%
Pression 1021 hPa
Visibilité 10 km ou plus
Nuages fragmentés à une hauteur de 6800 ft
Nuages fragmentés à une hauteur de 7800 ft

METAR: LFMP 241830Z AUTO 30011KT 270V340 9999 BKN068 BKN078 24/11 Q1021 NOSIG

Heure: 21:05 (19:05 UTC)

Prévision

Le bulletin a été fait il y a 5 heures et 5 minutes, à 14:00 UTC
Prévision valable du 24 à 15 UTC au 25 à 15 UTC
Vent 15 kt de nord-ouest
Visibilité 10 km ou plus
pas de nuages en-dessous de 1500 mètres et pas de cumulonimbus.
Temporairement
du 24 à 22 UTC au 25 à 06 UTC
Vent 5 kt de nord-ouest

TAF: LFMP 241400Z 2415/2515 31015KT CAVOK TEMPO 2422/2506 31005KT

Observations et prévisions météorologiques de plus de 4000 aéroports (messages METAR et TAF).

Les stations disponibles sont représentées par des disques jaunes et rouges sur la carte.

Passer la souris dessus pour voir le nom de la station.

Cliquer dessus pour voir les observations et prévisions météorologiques.

Pour changer de carte: cliquez sur les boutons verts avec une croix noire pour zoomer, sur le bouton vert avec un tiret pour effectuer un zoom arrière, ou sur les flèches vertes pour les cartes adjacentes.


METAR-TAF: